Darstellungsparameter: Aktuell verwendete Einstellungen:
Skalierung der Graphiken ... ?
xyx+y,   Skalierungsfaktor:      Skalierung: Modus: x, Faktor: 1
Darstellungszeitraum ... ?
Vom - - bis: - -   Zeitraum: 07.04.2010 - 08.04.2010
Min/Max/Avg-Anzeige ... ?
Zeige MMA aktuell
Zeige MMA Monat
Zeige MMA alles
Zeige --A aktuell
Zeige --A Monat
Zeige --A alles
Keine MMA-Anzeige
MMA:
Average (ber die Originaldaten)
MMA-Basis: 07.04.2010 - 08.04.2010
Quicknavigation für Darstellung... ?
Tage:      1T, 2T, 3T, 5T -1T -2T -3T -5T +1T +2T +3T +5T
Wochen: 1W, 2W, 3W -1W -2W -3W +1W +2W +3W
Monate: 1M, 3M, 6M -1M -3M -6M +1M +3M +6M
Jahre:    1J, 3J, 5J, 10J -1J -3J -5J -10J +1J +3J +5J +10J
Nutze für die Darstellung ... ?
Originaldaten oder Mittelwerte auf ...
Stundenbasis Tagesbasis Wochenbasis
Monatsbasis Jahresbasis      Datenbasis: Original-Daten
Darstellen als:
Statistik (Auto) Statistik J:M      Darstellung:
Zur Graphik,    zurück zur Übersicht aller Sensoren.
 
Tabellarische Datenbersicht: ?
 
Sensor: Nr:Datum:Temp:Abs-Feuchte:Windchill:Wind:
Aussen-T/F 1 07-04-2010 00:05:01 10 C 4.6 g/m*3 10 C 0 km/h
2 07-04-2010 00:17:01 9.7 C 4.61 g/m*3 9.7 C 0 km/h
3 07-04-2010 00:29:01 9.3 C 4.67 g/m*3 9.3 C 0 km/h
4 07-04-2010 00:41:02 9.1 C 4.7 g/m*3 9.1 C 0 km/h
5 07-04-2010 00:53:02 8.9 C 4.73 g/m*3 8.9 C 0 km/h
6 07-04-2010 01:05:02 8.6 C 4.73 g/m*3 8.6 C 0 km/h
7 07-04-2010 01:17:02 8.4 C 4.75 g/m*3 8.4 C 0 km/h
8 07-04-2010 01:29:02 8.2 C 4.77 g/m*3 8.2 C 0 km/h
9 07-04-2010 01:41:03 8.1 C 4.74 g/m*3 8.1 C 0 km/h
10 07-04-2010 01:53:02 7.9 C 4.76 g/m*3 7.9 C 0 km/h
11 07-04-2010 02:05:02 7.6 C 4.67 g/m*3 7.6 C 0 km/h
12 07-04-2010 02:17:02 7.4 C 4.69 g/m*3 7.4 C 0 km/h
13 07-04-2010 02:29:03 7.3 C 4.74 g/m*3 7.3 C 0 km/h
14 07-04-2010 02:41:02 7.1 C 4.76 g/m*3 7.1 C 0 km/h
15 07-04-2010 02:54:02 7.1 C 4.76 g/m*3 7.1 C 0 km/h
16 07-04-2010 03:06:02 7 C 4.73 g/m*3 7 C 0 km/h
17 07-04-2010 03:18:02 6.8 C 4.74 g/m*3 6.8 C 0 km/h
18 07-04-2010 03:30:02 6.7 C 4.71 g/m*3 6.7 C 0 km/h
19 07-04-2010 03:42:02 6.5 C 4.72 g/m*3 6.5 C 0 km/h
20 07-04-2010 03:54:02 6.5 C 4.72 g/m*3 6.5 C 0 km/h
21 07-04-2010 04:06:02 6.2 C 4.71 g/m*3 6.2 C 0 km/h
22 07-04-2010 04:18:02 6.1 C 4.75 g/m*3 6.1 C 0 km/h
23 07-04-2010 04:30:02 5.9 C 4.76 g/m*3 5.9 C 0 km/h
24 07-04-2010 04:42:03 5.8 C 4.8 g/m*3 5.8 C 0 km/h
25 07-04-2010 04:54:03 5.8 C 4.73 g/m*3 5.8 C 0 km/h
Sensor: Nr:Datum:Temp:Abs-Feuchte:Windchill:Wind:
Aussen-T/F 26 07-04-2010 05:06:03 5.5 C 4.64 g/m*3 5.5 C 0 km/h
27 07-04-2010 05:18:03 5.6 C 4.67 g/m*3 5.6 C 0 km/h
28 07-04-2010 05:30:03 5.3 C 4.64 g/m*3 5.3 C 0 km/h
29 07-04-2010 05:42:03 5.2 C 4.61 g/m*3 5.2 C 0 km/h
30 07-04-2010 05:54:03 5.1 C 4.58 g/m*3 5.1 C 0 km/h
31 07-04-2010 06:06:03 4.8 C 4.63 g/m*3 4.8 C 0 km/h
32 07-04-2010 06:18:03 4.8 C 4.69 g/m*3 4.8 C 0 km/h
33 07-04-2010 06:30:03 4.5 C 4.6 g/m*3 4.5 C 0 km/h
34 07-04-2010 06:42:03 4.5 C 4.67 g/m*3 4.5 C 0 km/h
35 07-04-2010 06:54:03 4.3 C 4.54 g/m*3 4.3 C 0 km/h
36 07-04-2010 07:06:02 4.3 C 4.67 g/m*3 4.3 C 0 km/h
37 07-04-2010 07:18:02 4.3 C 4.61 g/m*3 4.3 C 0 km/h
38 07-04-2010 07:30:03 4.3 C 4.61 g/m*3 4.3 C 0 km/h
39 07-04-2010 07:42:02 4.4 C 4.64 g/m*3 4.4 C 0 km/h
40 07-04-2010 07:54:02 4.4 C 4.64 g/m*3 4.4 C 0 km/h
41 07-04-2010 08:06:02 4.4 C 4.64 g/m*3 4.4 C 0 km/h
42 07-04-2010 08:18:03 4.5 C 4.73 g/m*3 4.5 C 0 km/h
43 07-04-2010 08:30:03 4.7 C 4.8 g/m*3 4.7 C 0 km/h
44 07-04-2010 08:42:02 4.8 C 4.83 g/m*3 4.8 C 0 km/h
45 07-04-2010 08:54:02 5.1 C 4.86 g/m*3 5.1 C 0 km/h
46 07-04-2010 09:06:01 5.4 C 4.88 g/m*3 5.4 C 0 km/h
47 07-04-2010 09:18:01 5.9 C 5.05 g/m*3 5.9 C 0 km/h
48 07-04-2010 09:30:01 6.5 C 5.02 g/m*3 6.5 C 0 km/h
49 07-04-2010 09:42:02 7.1 C 5.07 g/m*3 7.1 C 0 km/h
50 07-04-2010 09:54:02 8.1 C 4.91 g/m*3 8.1 C 0 km/h
Sensor: Nr:Datum:Temp:Abs-Feuchte:Windchill:Wind:
Aussen-T/F 51 07-04-2010 10:06:01 9.1 C 4.97 g/m*3 9.1 C 0 km/h
52 07-04-2010 10:18:02 9.7 C 4.98 g/m*3 9.7 C 0 km/h
53 07-04-2010 10:30:02 10.7 C 4.52 g/m*3 10.7 C 0 km/h
54 07-04-2010 10:42:02 11.7 C 4.5 g/m*3 11.7 C 0 km/h
55 07-04-2010 10:54:01 12.4 C 4.15 g/m*3 12.4 C 0 km/h
56 07-04-2010 11:06:02 13.2 C 4.13 g/m*3 13.2 C 0 km/h
57 07-04-2010 11:18:01 13.6 C 4 g/m*3 13.6 C 0 km/h
58 07-04-2010 11:30:01 14.1 C 3.88 g/m*3 14.1 C 0 km/h
59 07-04-2010 11:42:02 14.9 C 4.21 g/m*3 14.9 C 0 km/h
60 07-04-2010 11:54:02 15.7 C 4.01 g/m*3 15.7 C 0 km/h
61 07-04-2010 12:06:02 16 C 3.95 g/m*3 16 C 0 km/h
62 07-04-2010 12:18:01 16.4 C 4.05 g/m*3 16.4 C 0 km/h
63 07-04-2010 12:30:01 16.8 C 3.86 g/m*3 16.8 C 0 km/h
64 07-04-2010 12:42:02 17.3 C 3.83 g/m*3 17.3 C 0 km/h
65 07-04-2010 12:54:01 18.1 C 3.71 g/m*3 18.1 C 0 km/h
66 07-04-2010 13:06:02 18.5 C 3.48 g/m*3 18.5 C 0 km/h
67 07-04-2010 13:18:02 19.1 C 3.44 g/m*3 19.1 C 0 km/h
68 07-04-2010 13:30:03 19.2 C 3.3 g/m*3 19.2 C 0 km/h
69 07-04-2010 13:42:01 19.7 C 3.4 g/m*3 19.7 C 0 km/h
70 07-04-2010 13:54:02 20.6 C 3.58 g/m*3 20.6 C 0 km/h
71 07-04-2010 14:06:02 20.9 C 3.64 g/m*3 20.9 C 0 km/h
72 07-04-2010 14:18:02 21.3 C 3.73 g/m*3 21.3 C 0 km/h
73 07-04-2010 14:30:02 21.7 C 3.82 g/m*3 21.7 C 0 km/h
74 07-04-2010 14:42:03 22.7 C 4.04 g/m*3 22.7 C 0 km/h
75 07-04-2010 14:54:02 23.3 C 4.18 g/m*3 23.3 C 0 km/h
Sensor: Nr:Datum:Temp:Abs-Feuchte:Windchill:Wind:
Aussen-T/F 76 07-04-2010 15:06:02 23.7 C 4.28 g/m*3 23.7 C 0 km/h
77 07-04-2010 15:18:01 24 C 4.35 g/m*3 24 C 0 km/h
78 07-04-2010 15:30:01 24.1 C 4.38 g/m*3 24.1 C 0 km/h
79 07-04-2010 15:42:02 24.4 C 4.45 g/m*3 24.4 C 0 km/h
80 07-04-2010 15:54:02 25.2 C 4.66 g/m*3 25.2 C 0 km/h
81 07-04-2010 16:06:02 25.4 C 4.71 g/m*3 25.4 C 0 km/h
82 07-04-2010 16:18:02 25.8 C 4.82 g/m*3 25.8 C 0 km/h
83 07-04-2010 16:30:02 24.2 C 4.4 g/m*3 24.2 C 0 km/h
84 07-04-2010 16:42:02 24.7 C 4.53 g/m*3 24.7 C 0 km/h
85 07-04-2010 16:54:02 25.1 C 4.63 g/m*3 25.1 C 0 km/h
86 07-04-2010 17:06:03 25.9 C 4.84 g/m*3 25.9 C 0 km/h
87 07-04-2010 17:18:02 25.9 C 4.84 g/m*3 25.9 C 0 km/h
88 07-04-2010 17:30:02 25.4 C 4.71 g/m*3 25.4 C 0 km/h
89 07-04-2010 17:42:02 25.2 C 4.66 g/m*3 25.2 C 0 km/h
90 07-04-2010 17:54:01 25.2 C 4.66 g/m*3 25.2 C 0 km/h
91 07-04-2010 18:06:02 24.9 C 4.58 g/m*3 24.9 C 0 km/h
92 07-04-2010 18:18:01 24.7 C 4.53 g/m*3 24.7 C 0 km/h
93 07-04-2010 18:30:01 24 C 4.35 g/m*3 24 C 0 km/h
94 07-04-2010 18:42:01 23.5 C 4.23 g/m*3 23.5 C 0 km/h
95 07-04-2010 18:54:01 23.1 C 4.13 g/m*3 23.1 C 0 km/h
96 07-04-2010 19:06:02 22.5 C 3.99 g/m*3 22.5 C 0 km/h
97 07-04-2010 19:18:01 21.5 C 3.77 g/m*3 21.5 C 0 km/h
98 07-04-2010 19:30:01 20.5 C 3.91 g/m*3 20.5 C 0 km/h
99 07-04-2010 19:42:01 19.5 C 4.03 g/m*3 19.5 C 0 km/h
100 07-04-2010 19:54:01 18.7 C 4.16 g/m*3 18.7 C 0 km/h
Sensor: Nr:Datum:Temp:Abs-Feuchte:Windchill:Wind:
Aussen-T/F 101 07-04-2010 20:06:16 18.1 C 3.86 g/m*3 18.1 C 0 km/h
102 07-04-2010 20:18:02 17.8 C 3.95 g/m*3 17.8 C 0 km/h
103 07-04-2010 20:30:02 17.5 C 4.03 g/m*3 17.5 C 0 km/h
104 07-04-2010 20:42:03 17.2 C 4.1 g/m*3 17.2 C 0 km/h
105 07-04-2010 20:54:03 16.8 C 4.29 g/m*3 16.8 C 0 km/h
106 07-04-2010 21:06:03 16.4 C 4.19 g/m*3 16.4 C 0 km/h
107 07-04-2010 21:18:02 16.1 C 4.25 g/m*3 16.1 C 0 km/h
108 07-04-2010 21:30:02 15.8 C 4.31 g/m*3 15.8 C 0 km/h
109 07-04-2010 21:42:03 15.4 C 4.6 g/m*3 15.4 C 0 km/h
110 07-04-2010 21:54:02 15.1 C 4.64 g/m*3 15.1 C 0 km/h
111 07-04-2010 22:06:03 14.7 C 4.78 g/m*3 14.7 C 0 km/h
112 07-04-2010 22:18:04 14.4 C 4.94 g/m*3 14.4 C 0 km/h
113 07-04-2010 22:30:04 14.2 C 4.76 g/m*3 14.2 C 0 km/h
114 07-04-2010 22:43:04 14.1 C 4.61 g/m*3 14.1 C 0 km/h
115 07-04-2010 22:55:04 13.8 C 4.77 g/m*3 13.8 C 0 km/h
116 07-04-2010 23:07:04 13.5 C 4.91 g/m*3 13.5 C 0 km/h
117 07-04-2010 23:19:04 13.4 C 5 g/m*3 13.4 C 0 km/h
118 07-04-2010 23:31:04 13.2 C 5.05 g/m*3 13.2 C 0 km/h
119 07-04-2010 23:43:04 13.2 C 4.82 g/m*3 13.2 C 0 km/h
120 07-04-2010 23:55:04 13.1 C 4.91 g/m*3 13.1 C 0 km/h
121 08-04-2010 00:07:04 12.8 C 5.04 g/m*3 12.8 C 0 km/h
122 08-04-2010 00:19:04 12.6 C 5.09 g/m*3 12.6 C 0 km/h
123 08-04-2010 00:31:04 12.2 C 5.07 g/m*3 12.2 C 0 km/h
124 08-04-2010 00:43:04 12 C 5.12 g/m*3 12 C 0 km/h
125 08-04-2010 00:55:05 11.8 C 5.26 g/m*3 11.8 C 0 km/h
Sensor: Nr:Datum:Temp:Abs-Feuchte:Windchill:Wind:
Aussen-T/F 126 08-04-2010 01:07:05 11.6 C 5.3 g/m*3 11.6 C 0 km/h
127 08-04-2010 01:19:05 11.6 C 5.3 g/m*3 11.6 C 0 km/h
128 08-04-2010 01:31:05 11.6 C 5.3 g/m*3 11.6 C 0 km/h
129 08-04-2010 01:43:05 11.4 C 5.34 g/m*3 11.4 C 0 km/h
130 08-04-2010 01:55:05 11.6 C 5.3 g/m*3 11.6 C 0 km/h
131 08-04-2010 02:07:05 11.4 C 5.44 g/m*3 11.4 C 0 km/h
132 08-04-2010 02:19:05 11.2 C 5.37 g/m*3 11.2 C 0 km/h
133 08-04-2010 02:31:05 10.8 C 5.54 g/m*3 10.8 C 0 km/h
134 08-04-2010 02:43:05 10.5 C 5.63 g/m*3 10.5 C 0 km/h
135 08-04-2010 02:55:05 10.4 C 5.59 g/m*3 10.4 C 0 km/h
136 08-04-2010 03:07:05 10.5 C 5.63 g/m*3 10.5 C 0 km/h
137 08-04-2010 03:19:05 10.5 C 5.72 g/m*3 10.5 C 0 km/h
138 08-04-2010 03:31:05 10.5 C 5.72 g/m*3 10.5 C 0 km/h
139 08-04-2010 03:43:05 10.2 C 5.8 g/m*3 10.2 C 0 km/h
140 08-04-2010 03:55:05 10.2 C 5.8 g/m*3 10.2 C 0 km/h
141 08-04-2010 04:07:05 10 C 5.83 g/m*3 10 C 0 km/h
142 08-04-2010 04:19:05 9.9 C 5.88 g/m*3 9.9 C 0 km/h
143 08-04-2010 04:31:05 9.9 C 5.88 g/m*3 9.9 C 0 km/h
144 08-04-2010 04:43:05 10.3 C 5.94 g/m*3 10.3 C 0 km/h
145 08-04-2010 04:55:06 10.1 C 5.86 g/m*3 10.1 C 0 km/h
146 08-04-2010 05:07:06 9.9 C 5.98 g/m*3 9.9 C 0 km/h
147 08-04-2010 05:19:06 10.1 C 5.96 g/m*3 10.1 C 0 km/h
148 08-04-2010 05:31:06 10 C 5.92 g/m*3 10 C 0 km/h
149 08-04-2010 05:43:06 10 C 6.01 g/m*3 10 C 0 km/h
150 08-04-2010 05:55:06 10 C 5.92 g/m*3 10 C 0 km/h
Sensor: Nr:Datum:Temp:Abs-Feuchte:Windchill:Wind:
Aussen-T/F 151 08-04-2010 06:07:06 10.1 C 6.05 g/m*3 10.1 C 0 km/h
152 08-04-2010 06:19:06 10 C 6.01 g/m*3 10 C 0 km/h
153 08-04-2010 06:31:06 9.9 C 6.16 g/m*3 9.9 C 0 km/h
154 08-04-2010 06:43:06 9.9 C 6.16 g/m*3 9.9 C 0 km/h
155 08-04-2010 06:55:02 9.9 C 6.26 g/m*3 9.9 C 0 km/h
156 08-04-2010 07:07:02 10.1 C 6.43 g/m*3 10.1 C 0 km/h
157 08-04-2010 07:19:02 10.3 C 6.42 g/m*3 10.3 C 0 km/h
158 08-04-2010 07:31:02 10.7 C 6.78 g/m*3 10.7 C 0 km/h
159 08-04-2010 07:43:02 11.1 C 6.85 g/m*3 11.1 C 0 km/h
160 08-04-2010 07:55:01 11.2 C 6.69 g/m*3 11.2 C 0 km/h
161 08-04-2010 08:07:01 11.7 C 7.11 g/m*3 11.7 C 0 km/h
162 08-04-2010 08:19:01 11.9 C 7.2 g/m*3 11.9 C 0 km/h
163 08-04-2010 08:31:01 12.2 C 7.12 g/m*3 12.2 C 0 km/h
164 08-04-2010 08:43:01 12.4 C 7.1 g/m*3 12.4 C 0 km/h
165 08-04-2010 08:55:01 12.5 C 7.15 g/m*3 12.5 C 0 km/h
166 08-04-2010 09:07:01 12.6 C 7.3 g/m*3 12.6 C 0 km/h
167 08-04-2010 09:19:02 12.7 C 7.24 g/m*3 12.7 C 0 km/h
168 08-04-2010 09:31:01 13 C 7.26 g/m*3 13 C 0 km/h
169 08-04-2010 09:43:01 12.7 C 7.12 g/m*3 12.7 C 0 km/h
170 08-04-2010 09:55:02 12.8 C 7.28 g/m*3 12.8 C 0 km/h
171 08-04-2010 10:07:02 13.1 C 7.3 g/m*3 13.1 C 0 km/h
172 08-04-2010 10:19:02 13.4 C 7.32 g/m*3 13.4 C 0 km/h
173 08-04-2010 10:31:02 13.3 C 7.28 g/m*3 13.3 C 0 km/h
174 08-04-2010 10:43:02 13.3 C 7.28 g/m*3 13.3 C 0 km/h
175 08-04-2010 10:55:02 13.6 C 7.65 g/m*3 13.6 C 0 km/h
Sensor: Nr:Datum:Temp:Abs-Feuchte:Windchill:Wind:
Aussen-T/F 176 08-04-2010 11:07:02 14.2 C 7.33 g/m*3 14.2 C 0 km/h
177 08-04-2010 11:19:02 14.9 C 6.75 g/m*3 14.9 C 0 km/h
178 08-04-2010 11:31:02 14.9 C 6.75 g/m*3 14.9 C 0 km/h
179 08-04-2010 11:43:02 15.2 C 6.62 g/m*3 15.2 C 0 km/h
180 08-04-2010 11:55:02 15.6 C 6.65 g/m*3 15.6 C 0 km/h
181 08-04-2010 12:07:01 15.3 C 6.53 g/m*3 15.3 C 0 km/h
182 08-04-2010 12:19:02 15.7 C 6.69 g/m*3 15.7 C 0 km/h
183 08-04-2010 12:31:02 15.4 C 6.57 g/m*3 15.4 C 0 km/h
184 08-04-2010 12:43:02 15.5 C 6.48 g/m*3 15.5 C 0 km/h
185 08-04-2010 12:55:02 15.3 C 6.92 g/m*3 15.3 C 0 km/h
186 08-04-2010 13:07:02 15.3 C 7.05 g/m*3 15.3 C 0 km/h
187 08-04-2010 13:19:02 15.7 C 7.09 g/m*3 15.7 C 0 km/h
188 08-04-2010 13:31:02 15.8 C 7 g/m*3 15.8 C 0 km/h
189 08-04-2010 13:43:02 15.6 C 6.92 g/m*3 15.6 C 0 km/h
190 08-04-2010 13:55:01 15.7 C 6.96 g/m*3 15.7 C 0 km/h
191 08-04-2010 14:07:02 15.4 C 6.96 g/m*3 15.4 C 0 km/h
192 08-04-2010 14:19:01 15.2 C 6.88 g/m*3 15.2 C 0 km/h
193 08-04-2010 14:31:01 14.9 C 7.01 g/m*3 14.9 C 0 km/h
194 08-04-2010 14:43:01 15 C 7.05 g/m*3 15 C 0 km/h
195 08-04-2010 14:55:01 15 C 7.18 g/m*3 15 C 0 km/h
196 08-04-2010 15:07:02 14.9 C 7.39 g/m*3 14.9 C 0 km/h
197 08-04-2010 15:19:01 14.2 C 7.33 g/m*3 14.2 C 0 km/h
198 08-04-2010 15:31:01 14.8 C 7.6 g/m*3 14.8 C 0 km/h
199 08-04-2010 15:43:01 14.2 C 7.69 g/m*3 14.2 C 0 km/h
200 08-04-2010 15:55:01 13.9 C 8.03 g/m*3 13.9 C 0 km/h
Sensor: Nr:Datum:Temp:Abs-Feuchte:Windchill:Wind:
Aussen-T/F 201 08-04-2010 16:07:02 13.9 C 8.15 g/m*3 13.9 C 0 km/h
202 08-04-2010 16:19:02 13.8 C 8.34 g/m*3 13.8 C 0 km/h
203 08-04-2010 16:31:01 13.3 C 8.32 g/m*3 13.3 C 0 km/h
204 08-04-2010 16:43:01 13.3 C 8.43 g/m*3 13.3 C 0 km/h
205 08-04-2010 16:55:01 13.6 C 8.59 g/m*3 13.6 C 0 km/h
206 08-04-2010 17:07:02 13.7 C 8.53 g/m*3 13.7 C 0 km/h
207 08-04-2010 17:19:02 13.8 C 8.58 g/m*3 13.8 C 0 km/h
208 08-04-2010 17:31:01 13.5 C 8.3 g/m*3 13.5 C 0 km/h
209 08-04-2010 17:43:01 13.8 C 8.34 g/m*3 13.8 C 0 km/h
210 08-04-2010 17:55:02 13.6 C 8.24 g/m*3 13.6 C 0 km/h
211 08-04-2010 18:07:01 13.2 C 8.27 g/m*3 13.2 C 0 km/h
212 08-04-2010 18:19:07 12.9 C 8.34 g/m*3 12.9 C 0 km/h
213 08-04-2010 18:31:02 13 C 8.28 g/m*3 13 C 0 km/h
214 08-04-2010 18:43:02 12.9 C 8.23 g/m*3 12.9 C 0 km/h
215 08-04-2010 18:55:02 12.8 C 8.06 g/m*3 12.8 C 0 km/h
216 08-04-2010 19:07:02 12.7 C 8.24 g/m*3 12.7 C 0 km/h
217 08-04-2010 19:19:01 12.7 C 8.24 g/m*3 12.7 C 0 km/h
218 08-04-2010 19:31:02 12.5 C 8.14 g/m*3 12.5 C 0 km/h
219 08-04-2010 19:43:02 12.1 C 8.04 g/m*3 12.1 C 0 km/h
220 08-04-2010 19:55:02 11.9 C 8.15 g/m*3 11.9 C 0 km/h
221 08-04-2010 20:07:02 11.3 C 8.16 g/m*3 11.3 C 0 km/h
222 08-04-2010 20:19:02 11.3 C 8.26 g/m*3 11.3 C 0 km/h
223 08-04-2010 20:31:02 11.2 C 8.11 g/m*3 11.2 C 0 km/h
224 08-04-2010 20:43:02 11.2 C 7.91 g/m*3 11.2 C 0 km/h
225 08-04-2010 20:55:02 11.3 C 7.96 g/m*3 11.3 C 0 km/h
Sensor: Nr:Datum:Temp:Abs-Feuchte:Windchill:Wind:
Aussen-T/F 226 08-04-2010 21:07:02 11.3 C 7.85 g/m*3 11.3 C 0 km/h
227 08-04-2010 21:19:02 11.5 C 7.95 g/m*3 11.5 C 0 km/h
228 08-04-2010 21:31:02 11.5 C 7.85 g/m*3 11.5 C 0 km/h
229 08-04-2010 21:43:02 11.3 C 7.75 g/m*3 11.3 C 0 km/h
230 08-04-2010 21:56:02 11.3 C 7.75 g/m*3 11.3 C 0 km/h
231 08-04-2010 22:08:02 11.4 C 7.8 g/m*3 11.4 C 0 km/h
232 08-04-2010 22:20:02 11.2 C 7.6 g/m*3 11.2 C 0 km/h
233 08-04-2010 22:32:02 11.1 C 7.45 g/m*3 11.1 C 0 km/h
234 08-04-2010 22:44:02 11.1 C 7.35 g/m*3 11.1 C 0 km/h
235 08-04-2010 22:56:02 11.1 C 7.15 g/m*3 11.1 C 0 km/h
236 08-04-2010 23:08:02 11.1 C 7.15 g/m*3 11.1 C 0 km/h
237 08-04-2010 23:20:02 11 C 7.21 g/m*3 11 C 0 km/h
238 08-04-2010 23:32:02 11 C 7.31 g/m*3 11 C 0 km/h
239 08-04-2010 23:44:02 11.1 C 7.35 g/m*3 11.1 C 0 km/h
240 08-04-2010 23:56:02 11.1 C 7.25 g/m*3 11.1 C 0 km/h

Legende:
   Min
   Max


Maximal/Minimal-Werte vom 07.04.2010 - 08.04.2010

Sensor Min Max Avg
Temp
(Aussen-T/F)
4.3 °C
07-04-2010  06:54:03
25.9 °C
07-04-2010  17:06:03
12.99 °C
Abs-Feuchte
(Aussen-T/F)
3.3 g/m*3
07-04-2010  13:30:03
8.59 g/m*3
08-04-2010  16:55:01
5.69 g/m*3
Windchill
(Aussen-T/F)
4.3 C
07-04-2010  06:54:03
25.9 C
07-04-2010  17:06:03
12.94 C

Die Daten stammen von einer Davis Vantage Pro 2 Wetter-Station und werden unter Linux mit der Software wview2wettercgi und aufbereitet. Alle Angaben erfolgen ohne Gewähr für ihre Vollständigkeit oder Richtigkeit.
Kontakt: Rainer Krienke krienke@uni-koblenz.de . Meine Webseiten an der Uni Koblenz oder privat.
Version: $Revision: 0.78 $